createdAt,value
2017-09-09T00:00:43.055Z,86.90
2017-09-09T00:03:10.608Z,87.00
2017-09-09T00:05:38.232Z,87.30
2017-09-09T00:08:09.712Z,87.40
2017-09-09T00:10:37.437Z,87.50
2017-09-09T00:13:05.075Z,87.30
2017-09-09T00:15:34.356Z,87.40
2017-09-09T00:18:01.894Z,87.30
2017-09-09T00:20:30.163Z,87.10
2017-09-09T00:23:01.864Z,87.10
2017-09-09T00:25:29.375Z,87.20
2017-09-09T00:27:56.883Z,87.40
2017-09-09T00:30:24.411Z,87.40
2017-09-09T00:32:51.923Z,87.60
2017-09-09T00:35:19.445Z,87.80
2017-09-09T00:37:49.182Z,88.00
2017-09-09T00:40:16.919Z,87.90
2017-09-09T00:42:44.427Z,88.00
2017-09-09T00:45:13.656Z,88.10
2017-09-09T00:47:41.159Z,87.60
2017-09-09T00:50:08.672Z,87.40
2017-09-09T00:52:36.286Z,87.30
2017-09-09T00:55:03.838Z,87.30
2017-09-09T00:57:31.956Z,87.60
2017-09-09T01:00:00.272Z,87.80
2017-09-09T01:02:27.779Z,87.60
2017-09-09T01:04:56.991Z,87.90
2017-09-09T01:07:24.579Z,87.80
2017-09-09T01:09:52.102Z,88.20
2017-09-09T01:12:19.796Z,88.30
2017-09-09T01:14:47.431Z,88.30
2017-09-09T01:17:15.863Z,88.60
2017-09-09T01:19:43.406Z,88.90
2017-09-09T01:22:11.002Z,89.50
2017-09-09T01:24:42.199Z,89.50
2017-09-09T01:27:09.938Z,89.30
2017-09-09T01:29:37.447Z,89.10
2017-09-09T01:32:06.074Z,89.20
2017-09-09T01:34:33.616Z,89.10
2017-09-09T01:37:01.944Z,89.40
2017-09-09T01:39:30.286Z,89.40
2017-09-09T01:41:57.791Z,89.30
2017-09-09T01:44:25.872Z,89.50
2017-09-09T01:46:53.379Z,89.80
2017-09-09T01:49:21.697Z,89.80
2017-09-09T01:51:50.034Z,89.90
2017-09-09T01:54:17.827Z,89.80
2017-09-09T01:56:48.971Z,90.00
2017-09-09T01:59:16.548Z,90.10
2017-09-09T02:01:44.303Z,90.30
2017-09-09T02:04:11.843Z,90.30
2017-09-09T02:06:39.636Z,90.20
2017-09-09T02:09:07.151Z,90.10
2017-09-09T02:11:37.962Z,90.00
2017-09-09T02:14:06.384Z,90.10
2017-09-09T02:16:33.899Z,90.40
2017-09-09T02:19:01.404Z,90.00
2017-09-09T02:21:28.917Z,90.20
2017-09-09T02:23:56.784Z,90.30
2017-09-09T02:26:27.746Z,90.30
2017-09-09T02:28:55.287Z,90.30
2017-09-09T02:31:23.234Z,90.30
2017-09-09T02:33:50.779Z,90.30
2017-09-09T02:36:18.364Z,90.50
2017-09-09T02:38:46.083Z,90.50
2017-09-09T02:41:13.745Z,90.60
2017-09-09T02:43:42.235Z,90.70
2017-09-09T02:46:09.759Z,90.80
2017-09-09T02:48:37.367Z,90.90
2017-09-09T02:51:04.879Z,91.10
2017-09-09T02:53:32.423Z,91.00
2017-09-09T02:56:04.212Z,90.90
2017-09-09T02:58:31.723Z,90.90
2017-09-09T03:00:59.288Z,91.00
2017-09-09T03:03:26.798Z,91.00
2017-09-09T03:05:55.218Z,91.00
2017-09-09T03:08:22.723Z,91.10
2017-09-09T03:10:51.409Z,91.00
2017-09-09T03:13:18.919Z,91.00
2017-09-09T03:15:46.554Z,90.90
2017-09-09T03:18:14.103Z,90.80
2017-09-09T03:20:41.816Z,90.70
2017-09-09T03:23:10.248Z,90.70
2017-09-09T03:25:41.723Z,90.70
2017-09-09T03:28:09.361Z,90.70
2017-09-09T03:30:36.896Z,90.60
2017-09-09T03:33:05.082Z,90.70
2017-09-09T03:35:32.620Z,90.80
2017-09-09T03:38:00.175Z,90.90
2017-09-09T03:40:27.871Z,90.90
2017-09-09T03:42:55.382Z,91.00
2017-09-09T03:45:22.942Z,90.90
2017-09-09T03:47:51.241Z,90.80
2017-09-09T03:50:19.012Z,90.80
2017-09-09T03:52:46.671Z,90.90
2017-09-09T03:55:14.215Z,90.80
2017-09-09T03:57:41.807Z,90.70
2017-09-09T04:00:09.468Z,90.70
2017-09-09T04:02:37.845Z,90.80
2017-09-09T04:05:05.595Z,90.90
2017-09-09T04:07:33.315Z,91.00
2017-09-09T04:10:00.867Z,90.90
2017-09-09T04:12:31.370Z,91.10
2017-09-09T04:14:59.129Z,91.10
2017-09-09T04:17:27.219Z,91.10
2017-09-09T04:19:54.748Z,91.10
2017-09-09T04:22:22.287Z,90.90
2017-09-09T04:24:49.822Z,90.80
2017-09-09T04:27:21.065Z,90.70
2017-09-09T04:29:48.563Z,90.60
2017-09-09T04:32:16.699Z,90.50
2017-09-09T04:34:45.138Z,90.50
2017-09-09T04:37:12.652Z,90.50
2017-09-09T04:39:40.159Z,90.40
2017-09-09T04:42:12.199Z,90.30
2017-09-09T04:44:39.710Z,90.20
2017-09-09T04:47:07.330Z,90.00
2017-09-09T04:49:34.839Z,90.00
2017-09-09T04:52:02.341Z,89.60
2017-09-09T04:54:31.292Z,89.00
2017-09-09T04:56:58.796Z,88.50
2017-09-09T04:59:26.334Z,88.40
2017-09-09T05:01:53.882Z,88.00
2017-09-09T05:04:21.391Z,87.70
2017-09-09T05:06:49.955Z,87.30
2017-09-09T05:09:17.618Z,87.40
2017-09-09T05:11:45.127Z,87.40
2017-09-09T05:14:18.095Z,87.50
2017-09-09T05:16:45.729Z,87.50
2017-09-09T05:19:13.251Z,87.50
2017-09-09T05:21:40.755Z,87.90
2017-09-09T05:24:08.310Z,87.70
2017-09-09T05:26:35.958Z,87.80
2017-09-09T05:29:03.808Z,87.70
2017-09-09T05:31:31.611Z,87.70
2017-09-09T05:33:59.254Z,87.90
2017-09-09T05:36:27.018Z,87.90
2017-09-09T05:38:54.926Z,87.70
2017-09-09T05:41:23.085Z,87.60
2017-09-09T05:43:50.618Z,87.30
2017-09-09T05:46:18.443Z,87.20
2017-09-09T05:48:48.425Z,87.20
2017-09-09T05:51:16.315Z,87.10
2017-09-09T05:53:43.819Z,86.60
2017-09-09T05:56:11.364Z,86.30
2017-09-09T05:58:42.412Z,86.20
2017-09-09T06:01:09.928Z,85.70
2017-09-09T06:03:37.630Z,85.60
2017-09-09T06:06:05.164Z,85.60
2017-09-09T06:08:33.496Z,84.10
2017-09-09T06:11:01.007Z,84.10
2017-09-09T06:13:29.287Z,81.60
2017-09-09T06:15:56.875Z,81.60
2017-09-09T06:18:24.533Z,81.00
2017-09-09T06:20:52.404Z,79.90
2017-09-09T06:23:20.828Z,79.80
2017-09-09T06:25:48.331Z,79.20
2017-09-09T06:28:15.826Z,78.90
2017-09-09T06:30:43.462Z,78.60
2017-09-09T06:33:11.035Z,78.60
2017-09-09T06:35:38.685Z,78.10
2017-09-09T06:38:06.202Z,78.10
2017-09-09T06:40:33.744Z,79.10
2017-09-09T06:43:01.304Z,78.00
2017-09-09T06:45:29.387Z,78.20
2017-09-09T06:47:56.896Z,79.00
2017-09-09T06:50:24.419Z,78.30
2017-09-09T06:52:51.975Z,78.50
2017-09-09T06:55:19.708Z,79.00
2017-09-09T06:57:47.343Z,79.20
2017-09-09T07:00:14.862Z,79.40
2017-09-09T07:02:42.775Z,79.60
2017-09-09T07:05:10.292Z,79.30
2017-09-09T07:07:38.600Z,80.50
2017-09-09T07:10:06.141Z,80.40
2017-09-09T07:12:33.895Z,80.10
2017-09-09T07:15:02.560Z,80.30
2017-09-09T07:17:30.891Z,79.50
2017-09-09T07:19:58.423Z,79.50
2017-09-09T07:22:26.740Z,79.60
2017-09-09T07:24:54.291Z,79.80
2017-09-09T07:27:21.800Z,80.20
2017-09-09T07:29:49.376Z,80.00
2017-09-09T07:32:16.933Z,80.50
2017-09-09T07:34:44.612Z,80.80
2017-09-09T07:37:12.130Z,80.80
2017-09-09T07:39:40.180Z,81.10
2017-09-09T07:42:07.701Z,81.40
2017-09-09T07:44:35.361Z,81.20
2017-09-09T07:47:03.504Z,81.30
2017-09-09T07:49:31.140Z,81.20
2017-09-09T07:51:59.883Z,81.40
2017-09-09T07:54:27.393Z,81.90
2017-09-09T07:56:55.739Z,81.80
2017-09-09T07:59:24.176Z,81.60
2017-09-09T08:01:56.789Z,81.50
2017-09-09T08:04:25.231Z,81.50
2017-09-09T08:06:52.799Z,81.20
2017-09-09T08:09:20.312Z,82.00
2017-09-09T08:11:47.861Z,81.90
2017-09-09T08:14:15.367Z,82.00
2017-09-09T08:16:44.565Z,82.90
2017-09-09T08:19:12.072Z,82.90
2017-09-09T08:21:39.779Z,83.40
2017-09-09T08:24:07.308Z,83.60
2017-09-09T08:26:35.330Z,83.40
2017-09-09T08:29:03.858Z,83.90
2017-09-09T08:31:31.369Z,84.10
2017-09-09T08:33:58.916Z,85.00
2017-09-09T08:36:26.476Z,84.60
2017-09-09T08:38:53.983Z,86.10
2017-09-09T08:41:22.439Z,85.70
2017-09-09T08:43:50.004Z,85.50
2017-09-09T08:46:22.058Z,86.10
2017-09-09T08:48:49.596Z,86.30
2017-09-09T08:51:17.868Z,86.80
2017-09-09T08:53:45.560Z,86.80
2017-09-09T08:56:13.144Z,86.80
2017-09-09T08:58:40.732Z,87.20
2017-09-09T09:01:08.289Z,87.60
2017-09-09T09:03:36.324Z,88.40
2017-09-09T09:06:03.865Z,88.60
2017-09-09T09:08:31.366Z,89.60
2017-09-09T09:10:58.919Z,89.80
2017-09-09T09:13:26.427Z,90.00
2017-09-09T09:15:53.959Z,90.00
2017-09-09T09:18:21.561Z,90.10
2017-09-09T09:20:50.046Z,90.20
2017-09-09T09:23:17.623Z,90.10
2017-09-09T09:25:45.355Z,90.40
2017-09-09T09:28:12.875Z,90.00
2017-09-09T09:30:41.151Z,90.00
2017-09-09T09:33:12.347Z,90.10
2017-09-09T09:35:39.890Z,90.20
2017-09-09T09:38:07.561Z,90.10
2017-09-09T09:40:35.617Z,89.40
2017-09-09T09:43:04.068Z,89.00
2017-09-09T09:45:32.389Z,87.90
2017-09-09T09:48:03.845Z,87.60
2017-09-09T09:50:31.352Z,88.50
2017-09-09T09:52:58.996Z,87.50
2017-09-09T09:55:26.828Z,86.80
2017-09-09T09:57:54.402Z,87.90
2017-09-09T10:00:21.936Z,86.40
2017-09-09T10:02:52.950Z,85.70
2017-09-09T10:05:21.226Z,86.10
2017-09-09T10:07:48.741Z,86.00
2017-09-09T10:10:16.282Z,86.00
2017-09-09T10:12:44.195Z,86.30
2017-09-09T10:15:11.991Z,87.80
2017-09-09T10:17:39.534Z,87.00
2017-09-09T10:20:07.376Z,86.10
2017-09-09T10:22:34.882Z,85.80
2017-09-09T10:25:07.439Z,86.70
2017-09-09T10:27:35.737Z,86.70
2017-09-09T10:30:03.247Z,86.70
2017-09-09T10:32:34.683Z,87.50
2017-09-09T10:35:03.010Z,88.20
2017-09-09T10:37:30.544Z,88.20
2017-09-09T10:39:58.059Z,87.80
2017-09-09T10:42:26.055Z,87.90
2017-09-09T10:44:53.582Z,88.20
2017-09-09T10:47:21.147Z,88.20
2017-09-09T10:49:48.861Z,88.50
2017-09-09T10:52:16.652Z,87.50
2017-09-09T10:54:44.216Z,87.80
2017-09-09T10:57:11.844Z,88.80
2017-09-09T10:59:39.511Z,88.90
2017-09-09T11:02:07.829Z,89.80
2017-09-09T11:04:36.487Z,90.10
2017-09-09T11:07:06.113Z,90.10
2017-09-09T11:09:33.918Z,90.10
2017-09-09T11:12:01.437Z,89.90
2017-09-09T11:14:28.952Z,90.00
2017-09-09T11:16:56.464Z,90.00
2017-09-09T11:19:27.099Z,89.60
2017-09-09T11:21:55.549Z,89.80
2017-09-09T11:24:23.087Z,90.40
2017-09-09T11:26:50.591Z,90.50
2017-09-09T11:29:18.432Z,90.60
2017-09-09T11:31:46.221Z,90.10
2017-09-09T11:34:14.448Z,90.40
2017-09-09T11:36:43.351Z,90.30
2017-09-09T11:39:11.639Z,90.90
2017-09-09T11:41:39.392Z,90.60
2017-09-09T11:44:06.931Z,90.30
2017-09-09T11:46:34.444Z,90.50
2017-09-09T11:49:01.967Z,90.40
2017-09-09T11:51:30.262Z,90.30
2017-09-09T11:53:58.245Z,90.20
2017-09-09T11:56:25.814Z,90.30
2017-09-09T11:58:53.410Z,91.10
2017-09-09T12:01:20.937Z,91.20
2017-09-09T12:03:49.990Z,90.80
2017-09-09T12:06:17.969Z,91.00
2017-09-09T12:08:45.745Z,91.00
2017-09-09T12:11:13.363Z,90.70
2017-09-09T12:13:40.967Z,91.20
2017-09-09T12:16:08.478Z,91.60
2017-09-09T12:18:36.651Z,91.50
2017-09-09T12:21:04.163Z,91.70
2017-09-09T12:23:31.688Z,90.70
2017-09-09T12:25:59.227Z,90.60
2017-09-09T12:28:26.732Z,90.80
2017-09-09T12:30:54.253Z,90.30
2017-09-09T12:33:21.772Z,90.40
2017-09-09T12:35:49.296Z,89.70
2017-09-09T12:38:16.841Z,89.10
2017-09-09T12:40:45.260Z,88.40
2017-09-09T12:43:12.828Z,88.80
2017-09-09T12:45:40.711Z,87.50
2017-09-09T12:48:08.224Z,86.60
2017-09-09T12:50:35.870Z,86.40
2017-09-09T12:53:04.380Z,85.50
2017-09-09T12:55:31.911Z,84.70
2017-09-09T12:57:59.463Z,85.60
2017-09-09T13:00:27.306Z,85.50
2017-09-09T13:02:54.831Z,85.80
2017-09-09T13:05:23.723Z,85.90
2017-09-09T13:07:51.227Z,85.90
2017-09-09T13:10:18.851Z,86.20
2017-09-09T13:12:46.354Z,86.60
2017-09-09T13:15:13.898Z,86.50
2017-09-09T13:17:42.321Z,85.70
2017-09-09T13:20:09.882Z,85.70
2017-09-09T13:22:37.429Z,85.40
2017-09-09T13:25:04.975Z,85.60
2017-09-09T13:27:33.300Z,82.90
2017-09-09T13:30:01.996Z,83.80
2017-09-09T13:32:29.639Z,83.80
2017-09-09T13:34:57.143Z,84.00
2017-09-09T13:37:28.648Z,82.80
2017-09-09T13:39:56.155Z,82.90
2017-09-09T13:42:23.688Z,83.20
2017-09-09T13:44:51.221Z,82.80
2017-09-09T13:47:18.838Z,84.40
2017-09-09T13:49:46.439Z,83.70
2017-09-09T13:52:14.004Z,84.10
2017-09-09T13:54:41.517Z,84.60
2017-09-09T13:57:09.045Z,85.20
2017-09-09T13:59:36.543Z,84.70
2017-09-09T14:02:04.492Z,84.10
2017-09-09T14:04:32.038Z,84.60
2017-09-09T14:06:59.543Z,84.10
2017-09-09T14:09:27.051Z,84.60
2017-09-09T14:11:54.563Z,84.30
2017-09-09T14:14:22.345Z,84.10
2017-09-09T14:16:49.875Z,84.20
2017-09-09T14:19:18.438Z,85.30
2017-09-09T14:21:45.959Z,84.70
2017-09-09T14:24:17.362Z,85.20
2017-09-09T14:26:44.872Z,85.60
2017-09-09T14:29:12.856Z,85.30
2017-09-09T14:31:40.367Z,86.00
2017-09-09T14:34:07.928Z,86.60
2017-09-09T14:36:35.601Z,87.20
2017-09-09T14:39:03.111Z,87.50
2017-09-09T14:41:30.667Z,88.00
2017-09-09T14:43:58.216Z,89.50
2017-09-09T14:46:26.456Z,88.70
2017-09-09T14:48:53.963Z,88.60
2017-09-09T14:51:22.270Z,90.10
2017-09-09T14:53:53.361Z,90.10
2017-09-09T14:56:21.443Z,89.50
2017-09-09T14:58:49.152Z,89.70
2017-09-09T15:01:16.720Z,89.10
2017-09-09T15:03:44.220Z,89.80
2017-09-09T15:06:11.722Z,89.40
2017-09-09T15:08:39.354Z,90.00
2017-09-09T15:11:06.858Z,89.20
2017-09-09T15:13:34.930Z,89.60
2017-09-09T15:16:02.472Z,90.00
2017-09-09T15:18:30.030Z,90.10
2017-09-09T15:20:57.755Z,90.20
2017-09-09T15:23:28.978Z,90.30
2017-09-09T15:25:56.488Z,90.50
2017-09-09T15:28:24.214Z,90.70
2017-09-09T15:30:51.717Z,90.80
2017-09-09T15:33:19.262Z,90.80
2017-09-09T15:35:47.111Z,91.00
2017-09-09T15:38:14.623Z,91.10
2017-09-09T15:40:46.075Z,91.10
2017-09-09T15:43:13.662Z,90.90
2017-09-09T15:45:41.279Z,91.20
2017-09-09T15:48:08.802Z,90.80
2017-09-09T15:50:37.999Z,91.40
2017-09-09T15:53:09.268Z,91.50
2017-09-09T15:55:36.952Z,91.50
2017-09-09T15:58:04.475Z,91.50
2017-09-09T16:00:34.018Z,91.80
2017-09-09T16:03:01.791Z,91.80
2017-09-09T16:05:29.391Z,92.00
2017-09-09T16:07:57.285Z,92.10
2017-09-09T16:10:24.902Z,92.20
2017-09-09T16:12:53.421Z,92.10
2017-09-09T16:15:22.692Z,92.30
2017-09-09T16:17:50.199Z,92.30
2017-09-09T16:20:17.738Z,92.30
2017-09-09T16:22:46.067Z,92.50
2017-09-09T16:25:13.578Z,92.40
2017-09-09T16:27:42.795Z,92.50
2017-09-09T16:30:10.340Z,92.50
2017-09-09T16:32:37.922Z,92.70
2017-09-09T16:35:05.427Z,92.40
2017-09-09T16:37:33.844Z,92.50
2017-09-09T16:40:01.404Z,93.00
2017-09-09T16:42:28.903Z,92.80
2017-09-09T16:44:56.416Z,92.60
2017-09-09T16:47:23.911Z,92.70
2017-09-09T16:49:51.443Z,92.90
2017-09-09T16:52:18.989Z,92.80
2017-09-09T16:54:46.494Z,93.10
2017-09-09T16:57:14.953Z,93.20
2017-09-09T16:59:42.494Z,93.20
2017-09-09T17:02:10.043Z,92.90
2017-09-09T17:04:37.615Z,92.90
2017-09-09T17:07:05.189Z,93.00
2017-09-09T17:09:33.412Z,93.00
2017-09-09T17:12:02.867Z,92.90
2017-09-09T17:14:30.623Z,92.90
2017-09-09T17:16:58.733Z,92.90
2017-09-09T17:19:26.280Z,93.20
2017-09-09T17:21:53.895Z,92.90
2017-09-09T17:24:25.184Z,92.80
2017-09-09T17:26:53.749Z,93.20
2017-09-09T17:29:21.296Z,93.10
2017-09-09T17:31:49.256Z,93.10
2017-09-09T17:34:16.819Z,93.30
2017-09-09T17:36:45.091Z,93.30
2017-09-09T17:39:12.735Z,93.30
2017-09-09T17:41:40.364Z,93.20
2017-09-09T17:44:07.951Z,93.20
2017-09-09T17:46:35.543Z,93.40
2017-09-09T17:49:03.064Z,93.30
2017-09-09T17:51:31.199Z,93.00
2017-09-09T17:53:58.723Z,93.10
2017-09-09T17:56:26.635Z,93.20
2017-09-09T17:58:54.151Z,93.30
2017-09-09T18:01:21.650Z,93.20
2017-09-09T18:03:49.165Z,93.10
2017-09-09T18:06:16.667Z,93.40
2017-09-09T18:08:44.205Z,93.30
2017-09-09T18:11:11.711Z,93.30
2017-09-09T18:13:40.325Z,93.30
2017-09-09T18:16:07.841Z,93.50
2017-09-09T18:18:35.349Z,93.50
2017-09-09T18:21:02.945Z,93.60
2017-09-09T18:23:30.484Z,93.60
2017-09-09T18:25:58.046Z,93.50
2017-09-09T18:28:25.546Z,93.30
2017-09-09T18:30:53.523Z,93.50
2017-09-09T18:33:21.837Z,93.90
2017-09-09T18:35:49.371Z,93.90
2017-09-09T18:38:18.661Z,94.10
2017-09-09T18:40:50.763Z,93.90
2017-09-09T18:43:18.832Z,94.20
2017-09-09T18:45:46.375Z,94.00
2017-09-09T18:48:14.647Z,94.10
2017-09-09T18:50:43.997Z,94.20
2017-09-09T18:53:11.511Z,94.20
2017-09-09T18:55:40.127Z,94.20
2017-09-09T18:58:08.303Z,94.20
2017-09-09T19:00:35.831Z,94.10
2017-09-09T19:03:03.366Z,93.90
2017-09-09T19:05:30.925Z,93.70
2017-09-09T19:07:58.436Z,93.80
2017-09-09T19:10:26.280Z,93.80
2017-09-09T19:12:53.831Z,93.70
2017-09-09T19:15:22.448Z,93.80
2017-09-09T19:17:50.204Z,93.80
2017-09-09T19:20:17.873Z,93.90
2017-09-09T19:22:45.715Z,94.00
2017-09-09T19:25:13.301Z,93.80
2017-09-09T19:27:41.252Z,93.90
2017-09-09T19:30:08.769Z,93.80
2017-09-09T19:32:36.263Z,93.90
2017-09-09T19:35:03.812Z,93.90
2017-09-09T19:37:32.120Z,93.80
2017-09-09T19:40:01.583Z,94.00
2017-09-09T19:42:29.108Z,93.90
2017-09-09T19:44:56.675Z,94.00
2017-09-09T19:47:24.932Z,94.00
2017-09-09T19:49:52.443Z,93.90
2017-09-09T19:52:21.087Z,93.80
2017-09-09T19:54:49.248Z,93.80
2017-09-09T19:57:16.759Z,93.70
2017-09-09T19:59:44.256Z,93.90
2017-09-09T20:02:11.819Z,93.80
2017-09-09T20:04:39.365Z,93.70
2017-09-09T20:07:06.866Z,93.50
2017-09-09T20:09:35.342Z,93.30
2017-09-09T20:12:03.272Z,93.30
2017-09-09T20:14:30.762Z,93.50
2017-09-09T20:16:58.321Z,93.50
2017-09-09T20:19:25.859Z,93.60
2017-09-09T20:21:53.407Z,93.70
2017-09-09T20:24:20.912Z,93.80
2017-09-09T20:26:49.203Z,93.90
2017-09-09T20:29:17.523Z,93.80
2017-09-09T20:31:45.397Z,93.80
2017-09-09T20:34:13.063Z,93.80
2017-09-09T20:36:40.583Z,93.80
2017-09-09T20:39:08.895Z,94.00
2017-09-09T20:41:36.596Z,94.00
2017-09-09T20:44:04.107Z,94.00
2017-09-09T20:46:32.147Z,94.10
2017-09-09T20:49:00.571Z,94.20
2017-09-09T20:51:28.131Z,94.20
2017-09-09T20:53:55.639Z,94.20
2017-09-09T20:56:23.195Z,94.30
2017-09-09T20:58:54.379Z,94.40
2017-09-09T21:01:22.445Z,94.40
2017-09-09T21:03:50.772Z,94.30
2017-09-09T21:06:18.284Z,94.20
2017-09-09T21:08:46.042Z,94.20
2017-09-09T21:11:14.376Z,94.50
2017-09-09T21:13:42.135Z,94.30
2017-09-09T21:16:09.666Z,94.20
2017-09-09T21:18:37.256Z,94.40
2017-09-09T21:21:04.766Z,94.60
2017-09-09T21:23:32.271Z,94.70
2017-09-09T21:25:59.885Z,94.80
2017-09-09T21:28:28.315Z,94.80
2017-09-09T21:30:55.823Z,94.80
2017-09-09T21:33:23.323Z,94.80
2017-09-09T21:35:53.342Z,94.70
2017-09-09T21:38:20.864Z,94.70
2017-09-09T21:40:48.386Z,94.70
2017-09-09T21:43:15.882Z,94.60
2017-09-09T21:45:43.570Z,94.70
2017-09-09T21:48:13.048Z,94.70
2017-09-09T21:50:40.547Z,94.70
2017-09-09T21:53:08.847Z,94.90
2017-09-09T21:55:36.959Z,94.90
2017-09-09T21:58:04.655Z,94.90
2017-09-09T22:00:32.174Z,94.90
2017-09-09T22:02:59.691Z,94.90
2017-09-09T22:05:28.002Z,95.00
2017-09-09T22:07:56.187Z,95.00
2017-09-09T22:10:23.723Z,95.10
2017-09-09T22:12:51.264Z,95.00
2017-09-09T22:15:18.773Z,95.10
2017-09-09T22:17:46.318Z,95.20
2017-09-09T22:20:13.826Z,95.20
2017-09-09T22:22:42.121Z,95.30
2017-09-09T22:25:10.424Z,95.40
2017-09-09T22:27:38.486Z,95.40
2017-09-09T22:30:06.158Z,95.40
2017-09-09T22:32:34.320Z,95.40
2017-09-09T22:35:02.748Z,95.40
2017-09-09T22:37:30.416Z,95.40
2017-09-09T22:39:58.900Z,95.40
2017-09-09T22:42:26.414Z,95.30
2017-09-09T22:44:53.939Z,95.30
2017-09-09T22:47:21.479Z,95.30
2017-09-09T22:49:49.342Z,95.30
2017-09-09T22:52:17.007Z,95.30
2017-09-09T22:54:44.518Z,95.40
2017-09-09T22:57:12.855Z,95.40
2017-09-09T22:59:40.379Z,95.40
2017-09-09T23:02:07.884Z,95.40
2017-09-09T23:04:36.199Z,95.40
2017-09-09T23:07:03.702Z,95.40
2017-09-09T23:09:31.759Z,95.40
2017-09-09T23:11:59.268Z,95.50
2017-09-09T23:14:27.239Z,95.50
2017-09-09T23:16:54.750Z,95.60
2017-09-09T23:19:22.391Z,95.60
2017-09-09T23:21:50.051Z,95.70
2017-09-09T23:24:17.587Z,95.70
2017-09-09T23:26:45.863Z,95.70
2017-09-09T23:29:13.395Z,95.70
2017-09-09T23:31:40.918Z,95.70
2017-09-09T23:34:08.455Z,95.70
2017-09-09T23:36:35.958Z,95.60
2017-09-09T23:39:05.190Z,95.70
2017-09-09T23:41:32.713Z,95.70
2017-09-09T23:44:00.271Z,95.80
2017-09-09T23:46:31.256Z,95.90
2017-09-09T23:49:00.795Z,96.10
2017-09-09T23:51:28.391Z,95.80
2017-09-09T23:53:56.367Z,95.70
2017-09-09T23:56:24.089Z,95.90
2017-09-09T23:58:52.373Z,95.60
